createdAt,value
2018-01-17T00:01:54.170Z,2.50
2018-01-17T00:04:21.662Z,2.50
2018-01-17T00:06:49.137Z,2.40
2018-01-17T00:09:16.623Z,2.40
2018-01-17T00:11:44.869Z,2.40
2018-01-17T00:14:12.341Z,2.40
2018-01-17T00:16:40.566Z,2.30
2018-01-17T00:19:08.009Z,2.30
2018-01-17T00:21:35.468Z,2.40
2018-01-17T00:24:02.917Z,2.40
2018-01-17T00:26:30.425Z,2.40
2018-01-17T00:28:57.925Z,2.40
2018-01-17T00:31:25.411Z,2.40
2018-01-17T00:33:52.923Z,2.40
2018-01-17T00:36:20.414Z,2.40
2018-01-17T00:38:47.942Z,2.40
2018-01-17T00:41:15.404Z,2.30
2018-01-17T00:43:42.864Z,2.30
2018-01-17T00:46:10.310Z,2.30
2018-01-17T00:48:38.087Z,2.30
2018-01-17T00:51:05.519Z,2.30
2018-01-17T00:53:33.746Z,2.20
2018-01-17T00:56:01.952Z,2.10
2018-01-17T00:58:30.166Z,2.10
2018-01-17T01:00:57.619Z,2.10
2018-01-17T01:03:25.056Z,2.10
2018-01-17T01:05:53.286Z,2.20
2018-01-17T01:08:20.727Z,2.20
2018-01-17T01:13:21.185Z,2.10
2018-01-17T01:15:48.645Z,2.10
2018-01-17T01:18:16.084Z,2.10
2018-01-17T01:20:43.540Z,2.20
2018-01-17T01:23:10.996Z,2.20
2018-01-17T01:25:38.450Z,2.20
2018-01-17T01:28:05.914Z,2.20
2018-01-17T01:30:33.407Z,2.20
2018-01-17T01:33:00.901Z,2.20
2018-01-17T01:35:29.153Z,2.20
2018-01-17T01:37:56.652Z,2.20
2018-01-17T01:40:24.084Z,2.20
2018-01-17T01:42:51.576Z,2.20
2018-01-17T01:45:19.064Z,2.20
2018-01-17T01:47:46.538Z,2.10
2018-01-17T01:50:14.035Z,2.10
2018-01-17T01:52:41.515Z,2.00
2018-01-17T01:55:08.993Z,1.90
2018-01-17T01:57:36.469Z,1.90
2018-01-17T02:00:04.735Z,1.70
2018-01-17T02:02:32.210Z,1.70
2018-01-17T02:05:00.450Z,1.60
2018-01-17T02:07:27.943Z,1.60
2018-01-17T02:09:56.192Z,1.40
2018-01-17T02:12:23.685Z,1.40
2018-01-17T02:14:51.932Z,1.30
2018-01-17T02:17:19.418Z,1.30
2018-01-17T02:19:47.620Z,1.30
2018-01-17T02:22:15.078Z,1.30
2018-01-17T02:24:42.525Z,1.30
2018-01-17T02:27:09.981Z,1.30
2018-01-17T02:29:37.432Z,1.30
2018-01-17T02:32:04.881Z,1.20
2018-01-17T02:34:32.351Z,1.20
2018-01-17T02:36:59.792Z,1.20
2018-01-17T02:39:39.232Z,1.20
2018-01-17T02:42:06.682Z,1.30
2018-01-17T02:44:34.141Z,1.30
2018-01-17T02:47:01.598Z,1.30
2018-01-17T02:49:29.038Z,1.40
2018-01-17T02:51:57.269Z,1.50
2018-01-17T02:54:24.704Z,1.50
2018-01-17T02:56:52.166Z,1.60
2018-01-17T02:59:19.608Z,1.50
2018-01-17T03:01:47.062Z,1.50
2018-01-17T03:04:14.499Z,1.40
2018-01-17T03:06:42.725Z,1.40
2018-01-17T03:09:10.178Z,1.40
2018-01-17T03:11:37.643Z,1.40
2018-01-17T03:14:05.094Z,1.40
2018-01-17T03:16:32.550Z,1.30
2018-01-17T03:19:00.007Z,1.20
2018-01-17T03:21:27.443Z,1.20
2018-01-17T03:23:54.901Z,1.30
2018-01-17T03:26:22.356Z,1.30
2018-01-17T03:28:49.822Z,1.30
2018-01-17T03:31:17.278Z,1.30
2018-01-17T03:33:44.731Z,1.30
2018-01-17T03:36:12.195Z,1.30
2018-01-17T03:38:39.651Z,1.40
2018-01-17T03:41:07.097Z,1.40
2018-01-17T03:43:34.565Z,1.30
2018-01-17T03:46:02.012Z,1.30
2018-01-17T03:48:29.464Z,1.30
2018-01-17T03:50:56.912Z,1.30
2018-01-17T03:53:24.349Z,1.40
2018-01-17T03:55:51.805Z,1.40
2018-01-17T03:58:20.012Z,1.40
2018-01-17T04:00:47.475Z,1.40
2018-01-17T04:03:14.922Z,1.50
2018-01-17T04:05:42.372Z,1.50
2018-01-17T04:08:09.816Z,1.50
2018-01-17T04:10:37.535Z,1.50
2018-01-17T04:13:04.981Z,1.60
2018-01-17T04:15:32.423Z,1.60
2018-01-17T04:17:59.884Z,1.60
2018-01-17T04:20:27.330Z,1.70
2018-01-17T04:22:54.789Z,1.70
2018-01-17T04:25:22.233Z,1.70
2018-01-17T04:27:49.679Z,1.80
2018-01-17T04:30:17.132Z,1.80
2018-01-17T04:32:44.589Z,1.90
2018-01-17T04:35:12.028Z,1.90
2018-01-17T04:37:40.252Z,1.90
2018-01-17T04:40:07.709Z,1.90
2018-01-17T04:42:35.156Z,2.00
2018-01-17T04:45:03.364Z,2.00
2018-01-17T04:47:30.830Z,2.00
2018-01-17T04:49:58.286Z,2.10
2018-01-17T04:52:25.727Z,2.10
2018-01-17T04:54:53.171Z,2.20
2018-01-17T04:57:20.614Z,2.20
2018-01-17T04:59:48.070Z,2.20
2018-01-17T05:02:15.520Z,2.20
2018-01-17T05:04:42.969Z,2.20
2018-01-17T05:07:10.414Z,2.20
2018-01-17T05:09:37.865Z,2.30
2018-01-17T05:12:05.324Z,2.20
2018-01-17T05:14:32.771Z,2.20
2018-01-17T05:17:00.990Z,2.30
2018-01-17T05:19:28.455Z,2.20
2018-01-17T05:21:55.893Z,2.20
2018-01-17T05:24:23.351Z,2.10
2018-01-17T05:26:50.807Z,2.20
2018-01-17T05:29:18.253Z,2.20
2018-01-17T05:31:45.714Z,2.20
2018-01-17T05:34:13.162Z,2.10
2018-01-17T05:36:40.630Z,2.20
2018-01-17T05:39:08.081Z,2.10
2018-01-17T05:41:35.549Z,2.10
2018-01-17T05:44:02.984Z,2.10
2018-01-17T05:46:30.449Z,2.10
2018-01-17T05:48:57.901Z,2.10
2018-01-17T05:51:25.340Z,2.10
2018-01-17T05:53:52.805Z,2.20
2018-01-17T05:56:20.247Z,2.20
2018-01-17T05:58:48.465Z,2.20
2018-01-17T06:01:15.922Z,2.20
2018-01-17T06:03:43.389Z,2.20
2018-01-17T06:06:10.842Z,2.10
2018-01-17T06:08:39.055Z,2.10
2018-01-17T06:11:06.497Z,2.10
2018-01-17T06:13:33.947Z,2.10
2018-01-17T06:16:01.393Z,2.00
2018-01-17T06:18:28.839Z,2.00
2018-01-17T06:20:56.290Z,1.90
2018-01-17T06:23:23.756Z,2.00
2018-01-17T06:25:51.209Z,2.00
2018-01-17T06:28:18.653Z,2.00
2018-01-17T06:30:46.103Z,1.90
2018-01-17T06:33:13.601Z,2.00
2018-01-17T06:35:41.009Z,2.00
2018-01-17T06:38:08.447Z,1.90
2018-01-17T06:40:36.664Z,2.00
2018-01-17T06:43:04.113Z,2.00
2018-01-17T06:45:31.573Z,2.10
2018-01-17T06:47:59.022Z,2.10
2018-01-17T06:50:26.479Z,2.10
2018-01-17T06:52:53.929Z,2.10
2018-01-17T06:55:21.386Z,2.10
2018-01-17T06:57:48.830Z,2.20
2018-01-17T07:00:16.290Z,2.10
2018-01-17T07:02:43.733Z,2.20
2018-01-17T07:05:11.954Z,2.10
2018-01-17T07:07:39.402Z,2.00
2018-01-17T07:10:06.873Z,2.00
2018-01-17T07:12:34.314Z,1.90
2018-01-17T07:15:01.767Z,1.80
2018-01-17T07:17:29.219Z,1.60
2018-01-17T07:19:56.663Z,1.20
2018-01-17T07:22:24.123Z,0.90
2018-01-17T07:24:51.561Z,0.80
2018-01-17T07:27:19.779Z,0.40
2018-01-17T07:29:47.241Z,0.40
2018-01-17T07:32:14.691Z,0.30
2018-01-17T07:34:42.142Z,0.20
2018-01-17T07:37:09.597Z,0.00
2018-01-17T07:39:37.054Z,0.00
2018-01-17T07:42:04.508Z,0.00
2018-01-17T07:44:31.949Z,0.00
2018-01-17T07:46:59.429Z,0.10
2018-01-17T07:49:26.889Z,0.10
2018-01-17T07:51:54.339Z,0.20
2018-01-17T07:54:21.856Z,0.20
2018-01-17T07:56:50.101Z,0.10
2018-01-17T07:59:17.619Z,0.10
2018-01-17T08:01:45.156Z,0.20
2018-01-17T08:04:19.299Z,0.10
2018-01-17T08:06:48.078Z,0.00
2018-01-17T08:09:15.674Z,0.10
2018-01-17T08:11:44.033Z,0.00
2018-01-17T08:14:11.595Z,0.00
2018-01-17T08:16:39.176Z,0.00
2018-01-17T08:19:07.954Z,0.00
2018-01-17T08:21:35.562Z,0.10
2018-01-17T08:24:03.121Z,0.00
2018-01-17T08:26:31.431Z,0.00
2018-01-17T08:28:58.975Z,0.00
2018-01-17T08:31:26.490Z,0.00
2018-01-17T08:33:54.808Z,0.10
2018-01-17T08:36:22.356Z,0.10
2018-01-17T08:38:49.851Z,0.10
2018-01-17T08:41:17.310Z,0.20
2018-01-17T08:43:44.797Z,0.20
2018-01-17T08:46:12.271Z,0.10
2018-01-17T08:48:40.486Z,0.10
2018-01-17T08:51:07.946Z,0.00
2018-01-17T08:53:35.394Z,0.10
2018-01-17T08:56:02.845Z,0.10
2018-01-17T08:58:30.285Z,0.10
2018-01-17T09:00:57.736Z,0.10
2018-01-17T09:03:25.199Z,0.10
2018-01-17T09:05:52.642Z,0.10
2018-01-17T09:08:20.870Z,0.20
2018-01-17T09:10:48.315Z,0.20
2018-01-17T09:13:15.770Z,0.10
2018-01-17T09:15:43.221Z,0.20
2018-01-17T09:18:10.689Z,0.20
2018-01-17T09:20:38.132Z,0.30
2018-01-17T09:23:05.590Z,0.40
2018-01-17T09:25:33.049Z,0.40
2018-01-17T09:28:00.502Z,0.50
2018-01-17T09:30:27.960Z,0.60
2018-01-17T09:32:55.409Z,0.60
2018-01-17T09:35:22.888Z,0.50
2018-01-17T09:37:50.336Z,0.50
2018-01-17T09:40:17.805Z,0.50
2018-01-17T09:42:45.248Z,0.50
2018-01-17T09:45:12.691Z,0.60
2018-01-17T09:47:40.145Z,0.60
2018-01-17T09:50:07.606Z,0.60
2018-01-17T09:52:35.045Z,0.50
2018-01-17T09:55:02.509Z,0.50
2018-01-17T09:57:29.967Z,0.50
2018-01-17T09:59:57.414Z,0.40
2018-01-17T10:02:24.932Z,0.40
2018-01-17T10:04:52.379Z,0.40
2018-01-17T10:07:19.867Z,0.40
2018-01-17T10:09:48.850Z,0.50
2018-01-17T10:12:16.427Z,0.50
2018-01-17T10:14:44.681Z,0.60
2018-01-17T10:17:12.134Z,0.60
2018-01-17T10:19:39.603Z,0.80
2018-01-17T10:22:07.834Z,0.90
2018-01-17T10:24:35.303Z,0.90
2018-01-17T10:27:02.768Z,1.00
2018-01-17T10:29:30.231Z,1.00
2018-01-17T10:31:57.769Z,1.10
2018-01-17T10:34:25.233Z,1.20
2018-01-17T10:36:52.720Z,1.30
2018-01-17T10:39:20.311Z,1.50
2018-01-17T10:41:47.788Z,1.60
2018-01-17T10:44:15.292Z,1.70
2018-01-17T10:46:42.759Z,1.70
2018-01-17T10:49:10.224Z,1.80
2018-01-17T10:51:38.455Z,1.80
2018-01-17T10:54:05.925Z,1.80
2018-01-17T10:56:33.454Z,1.90
2018-01-17T10:59:00.920Z,1.90
2018-01-17T11:01:28.437Z,2.00
2018-01-17T11:03:55.896Z,2.00
2018-01-17T11:06:24.149Z,2.10
2018-01-17T11:08:51.602Z,2.10
2018-01-17T11:11:19.072Z,2.10
2018-01-17T11:13:47.281Z,2.10
2018-01-17T11:16:14.764Z,2.10
2018-01-17T11:18:42.208Z,2.30
2018-01-17T11:21:09.656Z,2.50
2018-01-17T11:23:37.119Z,2.30
2018-01-17T11:26:04.569Z,2.00
2018-01-17T11:28:32.017Z,2.00
2018-01-17T11:30:59.465Z,2.50
2018-01-17T11:33:26.909Z,3.30
2018-01-17T11:35:55.196Z,2.90
2018-01-17T11:38:22.635Z,2.90
2018-01-17T11:40:50.840Z,3.90
2018-01-17T11:43:18.268Z,3.90
2018-01-17T11:45:46.488Z,3.70
2018-01-17T11:48:13.936Z,3.70
2018-01-17T11:50:41.390Z,3.80
2018-01-17T11:53:08.843Z,3.30
2018-01-17T11:55:36.288Z,3.30
2018-01-17T11:58:03.729Z,2.60
2018-01-17T12:00:31.945Z,2.50
2018-01-17T12:02:59.390Z,2.50
2018-01-17T12:05:26.846Z,2.40
2018-01-17T12:07:54.297Z,2.40
2018-01-17T12:10:21.761Z,2.20
2018-01-17T12:12:49.210Z,2.20
2018-01-17T12:15:16.657Z,2.10
2018-01-17T12:17:44.123Z,2.10
2018-01-17T12:20:11.559Z,2.00
2018-01-17T12:22:39.016Z,2.00
2018-01-17T12:25:07.215Z,2.10
2018-01-17T12:27:34.673Z,2.10
2018-01-17T12:30:02.147Z,2.10
2018-01-17T12:32:29.584Z,2.10
2018-01-17T12:34:57.031Z,2.10
2018-01-17T12:37:24.505Z,2.10
2018-01-17T12:39:52.296Z,2.20
2018-01-17T12:42:19.739Z,2.90
2018-01-17T12:44:47.195Z,2.70
2018-01-17T12:47:14.782Z,2.30
2018-01-17T12:49:42.404Z,2.30
2018-01-17T12:52:09.840Z,2.40
2018-01-17T12:54:37.391Z,2.30
2018-01-17T12:57:05.573Z,2.50
2018-01-17T12:59:33.132Z,2.70
2018-01-17T13:02:00.772Z,2.90
2018-01-17T13:04:29.216Z,3.30
2018-01-17T13:06:56.837Z,3.30
2018-01-17T13:09:24.507Z,3.30
2018-01-17T13:11:52.158Z,3.40
2018-01-17T13:14:19.635Z,2.90
2018-01-17T13:16:47.134Z,3.80
2018-01-17T13:19:14.598Z,3.30
2018-01-17T13:21:42.154Z,2.70
2018-01-17T13:24:09.635Z,2.40
2018-01-17T13:26:37.133Z,2.30
2018-01-17T13:29:04.627Z,2.30
2018-01-17T13:31:32.137Z,2.30
2018-01-17T13:33:59.609Z,2.30
2018-01-17T13:36:27.080Z,2.20
2018-01-17T13:38:54.546Z,2.30
2018-01-17T13:41:22.132Z,2.20
2018-01-17T13:43:51.272Z,1.90
2018-01-17T13:46:20.767Z,1.80
2018-01-17T13:48:48.508Z,1.30
2018-01-17T13:51:16.059Z,0.70
2018-01-17T13:53:43.567Z,0.50
2018-01-17T13:56:11.831Z,0.00
2018-01-17T13:58:39.344Z,0.10
2018-01-17T14:01:07.640Z,0.00
2018-01-17T14:03:35.230Z,0.00
2018-01-17T14:06:02.873Z,-0.10
2018-01-17T14:08:30.378Z,0.00
2018-01-17T14:10:57.979Z,0.00
2018-01-17T14:13:25.462Z,0.00
2018-01-17T14:15:53.891Z,0.10
2018-01-17T14:18:22.296Z,0.10
2018-01-17T14:20:49.920Z,0.10
2018-01-17T14:23:18.215Z,0.00
2018-01-17T14:25:46.472Z,0.00
2018-01-17T14:28:14.697Z,0.00
2018-01-17T14:30:42.161Z,0.00
2018-01-17T14:33:09.630Z,0.10
2018-01-17T14:35:37.148Z,0.00
2018-01-17T14:38:04.606Z,0.10
2018-01-17T14:40:32.048Z,0.10
2018-01-17T14:43:05.143Z,0.10
2018-01-17T14:45:32.594Z,0.10
2018-01-17T14:48:00.053Z,0.10
2018-01-17T14:50:28.252Z,0.20
2018-01-17T14:52:55.708Z,0.20
2018-01-17T14:55:23.165Z,0.20
2018-01-17T14:57:50.612Z,0.30
2018-01-17T15:00:18.070Z,0.30
2018-01-17T15:02:45.513Z,0.30
2018-01-17T15:05:12.963Z,0.30
2018-01-17T15:07:40.413Z,0.30
2018-01-17T15:10:13.148Z,0.30
2018-01-17T15:12:40.618Z,0.30
2018-01-17T15:15:08.062Z,0.30
2018-01-17T15:17:35.518Z,0.40
2018-01-17T15:20:02.971Z,0.40
2018-01-17T15:22:31.184Z,0.60
2018-01-17T15:24:59.408Z,0.60
2018-01-17T15:27:26.859Z,0.60
2018-01-17T15:29:54.323Z,0.60
2018-01-17T15:32:21.781Z,0.60
2018-01-17T15:34:49.233Z,0.70
2018-01-17T15:37:16.687Z,0.70
2018-01-17T15:39:44.142Z,0.70
2018-01-17T15:42:11.605Z,0.90
2018-01-17T15:44:39.047Z,0.90
2018-01-17T15:47:06.510Z,0.90
2018-01-17T15:49:33.961Z,0.90
2018-01-17T15:52:01.416Z,0.90
2018-01-17T15:54:28.864Z,0.90
2018-01-17T15:56:56.326Z,0.90
2018-01-17T15:59:23.774Z,0.90
2018-01-17T16:01:51.236Z,0.90
2018-01-17T16:04:18.690Z,1.00
2018-01-17T16:06:46.572Z,1.00
2018-01-17T16:09:14.030Z,1.00
2018-01-17T16:11:41.473Z,1.00
2018-01-17T16:14:08.929Z,1.00
2018-01-17T16:16:36.387Z,1.00
2018-01-17T16:19:03.879Z,0.90
2018-01-17T16:21:31.330Z,1.00
2018-01-17T16:23:58.771Z,1.00
2018-01-17T16:26:26.240Z,1.10
2018-01-17T16:28:53.695Z,1.00
2018-01-17T16:31:21.174Z,1.00
2018-01-17T16:33:48.619Z,1.10
2018-01-17T16:36:16.071Z,1.00
2018-01-17T16:38:43.527Z,1.10
2018-01-17T16:41:10.982Z,1.10
2018-01-17T16:43:38.556Z,1.10
2018-01-17T16:46:06.813Z,1.10
2018-01-17T16:48:35.248Z,1.10
2018-01-17T16:51:03.510Z,1.10
2018-01-17T16:53:31.741Z,1.10
2018-01-17T16:55:59.210Z,1.10
2018-01-17T16:58:26.668Z,1.20
2018-01-17T17:00:54.165Z,1.00
2018-01-17T17:03:21.588Z,0.90
2018-01-17T17:05:49.033Z,0.90
2018-01-17T17:08:16.485Z,0.90
2018-01-17T17:10:43.974Z,0.90
2018-01-17T17:13:11.432Z,1.00
2018-01-17T17:15:38.901Z,1.00
2018-01-17T17:18:07.131Z,1.00
2018-01-17T17:20:34.615Z,1.00
2018-01-17T17:23:02.071Z,1.00
2018-01-17T17:25:29.544Z,1.00
2018-01-17T17:27:57.787Z,1.00
2018-01-17T17:30:25.259Z,1.00
2018-01-17T17:32:54.250Z,1.10
2018-01-17T17:35:21.718Z,1.10
2018-01-17T17:37:49.201Z,1.10
2018-01-17T17:40:17.464Z,1.30
2018-01-17T17:42:45.703Z,1.40
2018-01-17T17:45:13.164Z,1.30
2018-01-17T17:47:40.626Z,1.50
2018-01-17T17:50:08.135Z,1.80
2018-01-17T17:52:37.642Z,1.90
2018-01-17T17:55:05.359Z,1.90
2018-01-17T17:57:34.451Z,2.00
2018-01-17T18:00:01.962Z,2.00
2018-01-17T18:02:30.381Z,2.10
2018-01-17T18:04:57.858Z,2.10
2018-01-17T18:07:25.309Z,2.10
2018-01-17T18:09:53.101Z,2.20
2018-01-17T18:12:21.327Z,2.20
2018-01-17T18:14:48.768Z,2.10
2018-01-17T18:17:16.220Z,2.20
2018-01-17T18:19:43.665Z,2.20
2018-01-17T18:22:11.111Z,2.20
2018-01-17T18:24:38.560Z,2.30
2018-01-17T18:27:06.016Z,2.30
2018-01-17T18:29:33.467Z,2.30
2018-01-17T18:32:01.683Z,2.20
2018-01-17T18:34:29.132Z,2.20
2018-01-17T18:36:56.585Z,2.20
2018-01-17T18:39:24.033Z,2.10
2018-01-17T18:41:51.497Z,2.10
2018-01-17T18:44:18.939Z,2.10
2018-01-17T18:46:46.399Z,2.10
2018-01-17T18:49:13.837Z,2.10
2018-01-17T18:51:41.288Z,2.10
2018-01-17T18:54:09.500Z,2.10
2018-01-17T18:56:36.960Z,2.00
2018-01-17T18:59:04.422Z,2.10
2018-01-17T19:01:31.869Z,2.00
2018-01-17T19:03:59.339Z,2.10
2018-01-17T19:06:26.891Z,2.10
2018-01-17T19:08:54.440Z,2.10
2018-01-17T19:11:21.926Z,2.20
2018-01-17T19:13:49.472Z,2.20
2018-01-17T19:16:16.982Z,2.10
2018-01-17T19:18:45.403Z,2.10
2018-01-17T19:21:12.885Z,2.10
2018-01-17T19:23:40.414Z,2.10
2018-01-17T19:26:07.937Z,2.20
2018-01-17T19:28:36.206Z,2.00
2018-01-17T19:31:04.446Z,2.10
2018-01-17T19:33:32.043Z,2.10
2018-01-17T19:36:00.324Z,2.30
2018-01-17T19:38:28.638Z,2.30
2018-01-17T19:40:56.117Z,2.30
2018-01-17T19:43:23.640Z,2.30
2018-01-17T19:45:51.152Z,2.40
2018-01-17T19:48:18.621Z,2.40
2018-01-17T19:50:46.150Z,2.40
2018-01-17T19:53:13.669Z,2.40
2018-01-17T19:55:41.183Z,2.40
2018-01-17T19:58:08.886Z,2.40
2018-01-17T20:00:36.358Z,2.40
2018-01-17T20:03:03.848Z,2.40
2018-01-17T20:05:32.163Z,2.40
2018-01-17T20:08:00.475Z,2.40
2018-01-17T20:10:28.054Z,2.40
2018-01-17T20:12:55.631Z,2.50
2018-01-17T20:15:23.932Z,2.50
2018-01-17T20:17:51.448Z,2.60
2018-01-17T20:20:18.970Z,2.50
2018-01-17T20:22:52.084Z,2.50
2018-01-17T20:25:19.605Z,2.60
2018-01-17T20:27:47.137Z,2.60
2018-01-17T20:30:15.433Z,2.60
2018-01-17T20:32:43.711Z,2.70
2018-01-17T20:35:11.353Z,2.70
2018-01-17T20:37:38.841Z,2.70
2018-01-17T20:40:06.328Z,2.70
2018-01-17T20:45:08.552Z,2.70
2018-01-17T20:47:36.161Z,2.70
2018-01-17T20:50:03.678Z,2.60
2018-01-17T20:52:31.920Z,2.60
2018-01-17T20:54:59.462Z,2.60
2018-01-17T20:57:26.972Z,2.60
2018-01-17T20:59:55.224Z,2.60
2018-01-17T21:02:22.736Z,2.60
2018-01-17T21:04:50.239Z,2.50
2018-01-17T21:07:17.802Z,2.50
2018-01-17T21:09:45.311Z,2.40
2018-01-17T21:12:12.872Z,2.40
2018-01-17T21:14:40.414Z,2.30
2018-01-17T21:17:07.888Z,2.40
2018-01-17T21:19:35.409Z,2.30
2018-01-17T21:22:03.691Z,2.30
2018-01-17T21:24:31.958Z,2.20
2018-01-17T21:26:59.466Z,2.20
2018-01-17T21:29:26.978Z,2.10
2018-01-17T21:31:54.472Z,2.10
2018-01-17T21:34:22.043Z,2.10
2018-01-17T21:36:49.608Z,2.10
2018-01-17T21:39:17.124Z,2.10
2018-01-17T21:41:45.380Z,2.10
2018-01-17T21:44:18.633Z,2.10
2018-01-17T21:46:46.240Z,2.10
2018-01-17T21:49:13.698Z,2.10
2018-01-17T21:51:41.946Z,2.00
2018-01-17T21:54:09.421Z,2.00
2018-01-17T21:56:36.950Z,2.10
2018-01-17T21:59:04.425Z,2.10
2018-01-17T22:01:31.997Z,2.10
2018-01-17T22:03:59.507Z,2.00
2018-01-17T22:06:27.049Z,2.00
2018-01-17T22:08:54.566Z,2.00
2018-01-17T22:11:22.234Z,2.00
2018-01-17T22:13:49.757Z,2.00
2018-01-17T22:16:18.020Z,2.00
2018-01-17T22:18:45.544Z,2.00
2018-01-17T22:21:13.829Z,2.00
2018-01-17T22:23:41.373Z,2.00
2018-01-17T22:26:08.867Z,2.00
2018-01-17T22:28:36.364Z,2.00
2018-01-17T22:31:03.843Z,2.10
2018-01-17T22:33:32.105Z,2.00
2018-01-17T22:35:59.596Z,2.10
2018-01-17T22:38:27.090Z,2.10
2018-01-17T22:40:54.595Z,2.00
2018-01-17T22:43:22.850Z,2.00
2018-01-17T22:45:50.325Z,2.00
2018-01-17T22:48:18.560Z,2.00
2018-01-17T22:50:46.014Z,2.00
2018-01-17T22:53:13.463Z,2.20
2018-01-17T22:55:40.918Z,2.10
2018-01-17T22:58:08.363Z,2.20
2018-01-17T23:00:35.818Z,2.30
2018-01-17T23:03:03.344Z,2.30
2018-01-17T23:05:31.732Z,2.30
2018-01-17T23:07:59.250Z,2.30
2018-01-17T23:10:26.706Z,2.30
2018-01-17T23:12:54.174Z,2.40
2018-01-17T23:15:21.644Z,2.50
2018-01-17T23:17:49.864Z,2.50
2018-01-17T23:20:17.315Z,2.50
2018-01-17T23:22:44.761Z,2.40
2018-01-17T23:25:12.224Z,2.40
2018-01-17T23:27:39.685Z,2.30
2018-01-17T23:30:07.172Z,2.30
2018-01-17T23:32:34.640Z,2.30
2018-01-17T23:35:02.107Z,2.30
2018-01-17T23:37:29.575Z,2.30
2018-01-17T23:39:57.777Z,2.20
2018-01-17T23:42:25.286Z,2.30
2018-01-17T23:44:52.756Z,2.20
2018-01-17T23:47:20.977Z,2.20
2018-01-17T23:49:48.425Z,2.10
2018-01-17T23:52:15.891Z,2.10
2018-01-17T23:54:43.329Z,2.10
2018-01-17T23:57:10.812Z,2.10
2018-01-17T23:59:38.281Z,2.10
